»·PEaware :: QXE2547 KSEA-KPDX

QXE2547 :: KSEA-KPDX

FLIGHT INFORMATION

Flight Status: Arrived
Operator:
Horizon Air
More flights by this operator :: More flights under this callsign
Pilot: Adlai G. (28854)
Aircraft: DEHAVILLAND DASH 8 400
(DH8D)
More flights by this aircraft type
Origin: KSEA Seattle-Tacoma Intl
United States
Destination: KPDX Portland Intl
United States
More flights between these airports :: More routes between these airports
Route: +SEA7 BUWZO KRATR2
File this flight plan on PilotEdge
Remarks:
Altitude:
(Current/Filed)
17,000ft
Speed:
(Current/Filed)
356kts
Departed: 10-May-20 05:00 PM
Arrived: 10-May-20 05:35 PM
Distance/Time
Traveled:
112nm/0:35
Distance/Time
To Go:
Arrived

Flight Plot

Page will automatically refresh every two minutes.

Flight plan parsing failed; only flown route is shown


Map Options




Map Legend


Flown Route
Filed Route
Departure Airport
Arrival Airport
Navaid (VOR, NDB)
Fix

Horizontal Profiles

Position Reports

Time Latitude Longitude Heading Altitude Ground
Speed
10-May-20 16:25 47.443999 -122.303670 0 440ft 0kts
10-May-20 16:26 47.443999 -122.303670 0 440ft 0kts
10-May-20 16:27 47.443999 -122.303670 0 440ft 0kts
10-May-20 16:28 47.443999 -122.303670 0 440ft 0kts
10-May-20 16:29 47.443999 -122.303670 0 440ft 0kts
10-May-20 16:30 47.443999 -122.303670 0 440ft 0kts
10-May-20 16:31 47.443999 -122.303670 0 440ft 0kts
10-May-20 16:32 47.443999 -122.303670 0 440ft 0kts
10-May-20 16:33 47.443999 -122.303670 0 440ft 0kts
10-May-20 16:34 47.443999 -122.303670 0 440ft 0kts
10-May-20 16:35 47.443999 -122.303670 0 440ft 0kts
10-May-20 16:36 47.443999 -122.303670 0 440ft 0kts
10-May-20 16:37 47.443999 -122.303670 0 440ft 0kts
10-May-20 16:38 47.443999 -122.303670 0 440ft 0kts
10-May-20 16:39 47.443999 -122.303670 0 440ft 0kts
10-May-20 16:41 47.443999 -122.303670 0 440ft 0kts
10-May-20 16:42 47.443999 -122.303670 0 440ft 0kts
10-May-20 16:43 47.443999 -122.303670 0 440ft 0kts
10-May-20 16:44 47.443999 -122.303670 0 440ft 0kts
10-May-20 16:45 47.443999 -122.303670 0 440ft 0kts
10-May-20 16:46 47.443999 -122.303670 0 440ft 0kts
10-May-20 16:47 47.443999 -122.303670 0 440ft 0kts
10-May-20 16:48 47.443433 -122.303771 13 440ft 3kts
10-May-20 16:49 47.443290 -122.304697 90 440ft 2kts
10-May-20 16:50 47.443546 -122.305676 178 440ft 2kts
10-May-20 16:51 47.443697 -122.305676 180 440ft 0kts
10-May-20 16:52 47.443697 -122.305676 180 440ft 0kts
10-May-20 16:53 47.443697 -122.305676 180 440ft 0kts
10-May-20 16:54 47.441019 -122.306343 180 440ft 20kts
10-May-20 16:55 47.435263 -122.305926 157 440ft 20kts
10-May-20 16:56 47.431668 -122.306400 234 440ft 8kts
10-May-20 16:57 47.431519 -122.307020 264 440ft 0kts
10-May-20 16:58 47.431506 -122.307726 276 440ft 9kts
10-May-20 16:59 47.431945 -122.308015 0 440ft 6kts
10-May-20 16:59 47.456486 -122.307585 0 1351ft 149kts
10-May-20 17:01 47.514311 -122.315986 359 2996ft 214kts
10-May-20 17:02 47.579637 -122.319197 356 3000ft 240kts
10-May-20 17:02 47.635162 -122.323258 356 3006ft 243kts
10-May-20 17:03 47.686295 -122.364004 276 6224ft 220kts
10-May-20 17:04 47.640652 -122.406167 173 8581ft 246kts
10-May-20 17:05 47.565086 -122.395701 173 9667ft 282kts
10-May-20 17:06 47.486319 -122.384149 173 11107ft 287kts
10-May-20 17:07 47.408406 -122.373213 174 12684ft 284kts
10-May-20 17:08 47.328087 -122.360723 175 13694ft 293kts
10-May-20 17:09 47.246827 -122.350239 174 14696ft 293kts
10-May-20 17:10 47.163413 -122.338948 173 14998ft 313kts
10-May-20 17:11 47.074511 -122.326529 174 15003ft 327kts
10-May-20 17:12 46.985595 -122.314228 174 15952ft 309kts
10-May-20 17:13 46.902144 -122.308499 180 16942ft 305kts
10-May-20 17:14 46.814640 -122.309770 179 16998ft 323kts
10-May-20 17:15 46.723331 -122.309488 179 16999ft 332kts
10-May-20 17:16 46.630356 -122.309623 180 16998ft 336kts
10-May-20 17:17 46.536723 -122.309571 180 16999ft 338kts
10-May-20 17:18 46.442661 -122.309666 180 16997ft 338kts
10-May-20 17:19 46.348865 -122.309656 180 16862ft 337kts
10-May-20 17:20 46.258357 -122.312043 188 13775ft 318kts
10-May-20 17:21 46.174037 -122.355276 200 11898ft 323kts
10-May-20 17:22 46.091614 -122.402142 199 10017ft 298kts
10-May-20 17:23 46.017959 -122.441458 198 8618ft 271kts
10-May-20 17:24 45.947967 -122.479277 199 7441ft 270kts
10-May-20 17:25 45.887735 -122.542304 220 6150ft 267kts
10-May-20 17:26 45.834886 -122.609996 219 5049ft 244kts
10-May-20 17:27 45.786717 -122.670638 219 5010ft 217kts
10-May-20 17:28 45.735896 -122.719174 206 4245ft 228kts
10-May-20 17:29 45.681544 -122.758899 185 2750ft 206kts
10-May-20 17:30 45.637961 -122.724856 123 1669ft 173kts
10-May-20 17:31 45.617702 -122.680249 115 935ft 112kts
10-May-20 17:32 45.602909 -122.641449 116 381ft 111kts
10-May-20 17:33 45.589869 -122.607904 117 37ft 64kts
10-May-20 17:34 45.588019 -122.600432 62 37ft 1kts
10-May-20 17:35 45.588698 -122.599638 28 37ft 4kts
10-May-20 17:36 45.590923 -122.601086 38 37ft 7kts
10-May-20 17:37 45.590636 -122.598649 208 37ft 2kts
10-May-20 17:38 45.590609 -122.598669 208 37ft 0kts
10-May-20 17:39 45.590609 -122.598669 208 37ft 0kts
10-May-20 17:40 45.590609 -122.598669 208 37ft 0kts
10-May-20 17:41 45.590609 -122.598669 208 37ft 0kts
10-May-20 17:42 45.590609 -122.598669 208 37ft 0kts

Navigation Log

Ident Type
Flight plan parsing failed, navigation log unavailable